Aérodrome :
LOGIN :

S'inscrire | Disclaimer

   EN    FR    IT 

 










Légende :    VFR   VFR Marginal   IFR   IFR Intensif   IFR Très Intensif
Visi : 
Plafond : 
>= 8 km
>= 3000ft
5 à 8 km
1000 à 3000 ft
1500m à 5 km
500 à 1000 ft
800 à 1500m
200 à 500 ft
< 800m
< 200 ft
Symboles :   Orages  Brouillard  Fortes neiges  Fortes précipitations  Vent > 20 kt
SIGMETs :   Divers  Orages  Givrage  Turbulence  Onde Orograph.  Cendres Volcan.







- Altitude de l'aérodrome : 370 ft


EBBE - Beauvechain AB

DERNIER METAR :
  • 261655Z AUTO 35006KT 9999 FEW032/// 07/M01 Q1014 BLU

METARs EXPIRÉS :
  • 261625Z AUTO 33007KT 9999 NCD 08/01 Q1013 BLU
  • 261603Z 23003KT 9999 FEW017 FEW040CB BKN065 09/00 Q1013 BLU FCST CANCEL
  • 261555Z 21004KT 9999 FEW017 FEW040CB BKN065 08/01 Q1013 BLU BLU TEMPO GRN
  • 261525Z 24007KT 9999 VCSH FEW017 FEW040CB BKN065 06/01 Q1014 BLU BLU TEMPO GRN
  • 261455Z VRB02KT 9999 VCSH FEW017 SCT040CB BKN060 06/00 Q1014 BLU BLU TEMPO GRN
  • 261425Z 05007KT 9999 VCSH SCT040TCU BKN065 06/01 Q1014 BLU BLU TEMPO GRN

TAF TAF EBBE
Valide du 26 à 13h jusqu'au 26 à 22h UTC


261141Z 2613/2622 35005KT 9999 SCT040 BKN060
TEMPO 2613/2621 6000 -SHRA SCT030 BKN050
TEMPO 2613/2619 36010G20KT 4000 SHRA SCT020TCU BKN040
PROB40
TEMPO 2613/2618 36015G25KT 2000 TSRAGS SCT015CB BKN030
Pas de NOTAMs connus pour ce terrain.



MET'MAP, la Météo Aéronautique d'un coup d'oeil ! - Copyright ORBIFLY Décembre 2007 - Disclaimer

ORBIFLY MET'MAP TEAM :

Programmation & Développement : Alexandra Zaïnal
Conception & Développement : Baudouin d'Aumeries
Co-Programmation & Développement : Marc-Olivier Méhu
Soutien technique & logistique : Manuel Goepfert

Contact : metmap@orbifly.com




SOURCES & CREDITS :

   NOAA